sensor_id;sensor_type;location;lat;lon;timestamp;P1;durP1;ratioP1;P2;durP2;ratioP2
51122;SDS011;37162;41.724;13.346;2022-12-18T00:00:20;3.00;;;2.70;;
51122;SDS011;37162;41.724;13.346;2022-12-18T00:02:45;3.95;;;3.40;;
51122;SDS011;37162;41.724;13.346;2022-12-18T00:05:11;3.38;;;2.95;;
51122;SDS011;37162;41.724;13.346;2022-12-18T00:07:36;4.32;;;3.10;;
51122;SDS011;37162;41.724;13.346;2022-12-18T00:10:02;3.83;;;3.08;;
51122;SDS011;37162;41.724;13.346;2022-12-18T00:12:28;5.53;;;3.60;;
51122;SDS011;37162;41.724;13.346;2022-12-18T00:14:54;3.33;;;2.45;;
51122;SDS011;37162;41.724;13.346;2022-12-18T00:17:19;2.97;;;2.67;;
51122;SDS011;37162;41.724;13.346;2022-12-18T00:19:44;4.25;;;3.30;;
51122;SDS011;37162;41.724;13.346;2022-12-18T00:22:10;4.13;;;2.92;;
51122;SDS011;37162;41.724;13.346;2022-12-18T00:24:35;3.40;;;2.55;;
51122;SDS011;37162;41.724;13.346;2022-12-18T00:27:01;4.75;;;2.63;;
51122;SDS011;37162;41.724;13.346;2022-12-18T00:29:26;3.30;;;2.45;;
51122;SDS011;37162;41.724;13.346;2022-12-18T00:31:51;4.03;;;2.88;;
51122;SDS011;37162;41.724;13.346;2022-12-18T00:34:17;3.10;;;2.38;;
51122;SDS011;37162;41.724;13.346;2022-12-18T00:36:42;2.90;;;2.25;;
51122;SDS011;37162;41.724;13.346;2022-12-18T00:39:08;3.20;;;2.50;;
51122;SDS011;37162;41.724;13.346;2022-12-18T00:41:35;3.78;;;2.80;;
51122;SDS011;37162;41.724;13.346;2022-12-18T00:44:19;3.78;;;2.40;;
51122;SDS011;37162;41.724;13.346;2022-12-18T00:46:45;3.45;;;2.60;;
51122;SDS011;37162;41.724;13.346;2022-12-18T00:49:12;2.83;;;1.90;;
51122;SDS011;37162;41.724;13.346;2022-12-18T00:51:38;2.83;;;2.33;;
51122;SDS011;37162;41.724;13.346;2022-12-18T00:54:05;3.72;;;2.60;;
51122;SDS011;37162;41.724;13.346;2022-12-18T00:56:30;3.53;;;2.17;;
51122;SDS011;37162;41.724;13.346;2022-12-18T00:58:56;3.15;;;1.80;;
51122;SDS011;37162;41.724;13.346;2022-12-18T01:01:21;2.80;;;2.05;;
51122;SDS011;37162;41.724;13.346;2022-12-18T01:03:47;3.05;;;2.47;;
51122;SDS011;37162;41.724;13.346;2022-12-18T01:06:13;3.20;;;2.30;;
51122;SDS011;37162;41.724;13.346;2022-12-18T01:08:40;3.83;;;2.67;;
51122;SDS011;37162;41.724;13.346;2022-12-18T01:11:13;3.22;;;1.95;;
51122;SDS011;37162;41.724;13.346;2022-12-18T01:13:40;3.42;;;2.28;;
51122;SDS011;37162;41.724;13.346;2022-12-18T01:16:06;4.13;;;2.40;;
51122;SDS011;37162;41.724;13.346;2022-12-18T01:18:32;3.60;;;2.33;;
51122;SDS011;37162;41.724;13.346;2022-12-18T01:20:57;3.00;;;1.98;;
51122;SDS011;37162;41.724;13.346;2022-12-18T01:23:23;3.03;;;1.60;;
51122;SDS011;37162;41.724;13.346;2022-12-18T01:25:52;5.78;;;1.90;;
51122;SDS011;37162;41.724;13.346;2022-12-18T01:28:17;2.15;;;1.80;;
51122;SDS011;37162;41.724;13.346;2022-12-18T01:30:43;3.15;;;2.00;;
51122;SDS011;37162;41.724;13.346;2022-12-18T01:33:08;2.45;;;1.80;;
51122;SDS011;37162;41.724;13.346;2022-12-18T01:35:33;2.83;;;2.00;;
51122;SDS011;37162;41.724;13.346;2022-12-18T01:38:05;1.98;;;1.73;;
51122;SDS011;37162;41.724;13.346;2022-12-18T01:40:31;2.75;;;1.67;;
51122;SDS011;37162;41.724;13.346;2022-12-18T01:42:56;1.83;;;1.58;;
51122;SDS011;37162;41.724;13.346;2022-12-18T01:45:22;2.20;;;1.70;;
51122;SDS011;37162;41.724;13.346;2022-12-18T01:47:56;2.67;;;2.03;;
51122;SDS011;37162;41.724;13.346;2022-12-18T01:52:58;1.70;;;1.60;;
51122;SDS011;37162;41.724;13.346;2022-12-18T01:55:31;2.05;;;1.70;;
51122;SDS011;37162;41.724;13.346;2022-12-18T01:58:01;1.85;;;1.48;;
51122;SDS011;37162;41.724;13.346;2022-12-18T02:00:27;2.15;;;1.50;;
51122;SDS011;37162;41.724;13.346;2022-12-18T02:02:53;3.10;;;1.80;;
51122;SDS011;37162;41.724;13.346;2022-12-18T02:05:24;2.25;;;1.70;;
51122;SDS011;37162;41.724;13.346;2022-12-18T02:18:40;2.30;;;1.73;;
51122;SDS011;37162;41.724;13.346;2022-12-18T02:23:47;2.05;;;1.70;;
51122;SDS011;37162;41.724;13.346;2022-12-18T02:26:36;2.58;;;1.73;;
51122;SDS011;37162;41.724;13.346;2022-12-18T02:31:54;3.65;;;1.95;;
51122;SDS011;37162;41.724;13.346;2022-12-18T02:34:23;3.90;;;1.80;;
51122;SDS011;37162;41.724;13.346;2022-12-18T02:36:53;2.85;;;2.00;;
51122;SDS011;37162;41.724;13.346;2022-12-18T02:39:20;2.22;;;1.80;;
51122;SDS011;37162;41.724;13.346;2022-12-18T02:41:48;2.33;;;1.60;;
51122;SDS011;37162;41.724;13.346;2022-12-18T02:44:14;3.10;;;1.85;;
51122;SDS011;37162;41.724;13.346;2022-12-18T02:46:43;3.13;;;1.70;;
51122;SDS011;37162;41.724;13.346;2022-12-18T02:51:50;1.95;;;1.48;;
51122;SDS011;37162;41.724;13.346;2022-12-18T02:57:14;2.55;;;1.80;;
51122;SDS011;37162;41.724;13.346;2022-12-18T03:00:51;2.13;;;1.60;;
51122;SDS011;37162;41.724;13.346;2022-12-18T03:03:49;1.98;;;1.40;;
51122;SDS011;37162;41.724;13.346;2022-12-18T03:05:50;1.95;;;1.50;;
51122;SDS011;37162;41.724;13.346;2022-12-18T03:08:21;2.28;;;1.52;;
51122;SDS011;37162;41.724;13.346;2022-12-18T03:10:50;1.80;;;1.50;;
51122;SDS011;37162;41.724;13.346;2022-12-18T03:13:33;2.80;;;1.80;;
51122;SDS011;37162;41.724;13.346;2022-12-18T03:16:02;1.90;;;1.60;;
51122;SDS011;37162;41.724;13.346;2022-12-18T03:18:43;1.95;;;1.58;;
51122;SDS011;37162;41.724;13.346;2022-12-18T03:21:17;1.98;;;1.58;;
51122;SDS011;37162;41.724;13.346;2022-12-18T03:23:48;1.92;;;1.45;;
51122;SDS011;37162;41.724;13.346;2022-12-18T03:26:16;2.05;;;1.35;;
51122;SDS011;37162;41.724;13.346;2022-12-18T03:28:50;2.35;;;1.67;;
51122;SDS011;37162;41.724;13.346;2022-12-18T03:31:19;2.20;;;1.38;;
51122;SDS011;37162;41.724;13.346;2022-12-18T03:33:51;2.67;;;1.55;;
51122;SDS011;37162;41.724;13.346;2022-12-18T03:36:20;1.77;;;1.35;;
51122;SDS011;37162;41.724;13.346;2022-12-18T03:38:46;1.70;;;1.60;;
51122;SDS011;37162;41.724;13.346;2022-12-18T03:46:43;1.40;;;1.30;;
51122;SDS011;37162;41.724;13.346;2022-12-18T03:51:48;1.98;;;1.48;;
51122;SDS011;37162;41.724;13.346;2022-12-18T03:54:18;1.50;;;1.20;;
51122;SDS011;37162;41.724;13.346;2022-12-18T03:56:46;2.22;;;1.50;;
51122;SDS011;37162;41.724;13.346;2022-12-18T03:59:16;2.92;;;1.75;;
51122;SDS011;37162;41.724;13.346;2022-12-18T04:01:45;2.42;;;1.30;;
51122;SDS011;37162;41.724;13.346;2022-12-18T04:04:13;1.67;;;1.30;;
51122;SDS011;37162;41.724;13.346;2022-12-18T04:06:42;1.65;;;1.30;;
51122;SDS011;37162;41.724;13.346;2022-12-18T04:09:10;2.17;;;1.63;;
51122;SDS011;37162;41.724;13.346;2022-12-18T04:11:36;1.77;;;1.40;;
51122;SDS011;37162;41.724;13.346;2022-12-18T04:14:01;1.40;;;1.02;;
51122;SDS011;37162;41.724;13.346;2022-12-18T04:16:26;1.33;;;1.15;;
51122;SDS011;37162;41.724;13.346;2022-12-18T04:18:53;4.82;;;1.45;;
51122;SDS011;37162;41.724;13.346;2022-12-18T04:21:19;1.38;;;1.20;;
51122;SDS011;37162;41.724;13.346;2022-12-18T04:23:44;1.35;;;1.25;;
51122;SDS011;37162;41.724;13.346;2022-12-18T04:26:10;1.55;;;1.40;;
51122;SDS011;37162;41.724;13.346;2022-12-18T04:28:35;1.33;;;1.20;;
51122;SDS011;37162;41.724;13.346;2022-12-18T04:31:01;1.88;;;1.30;;
51122;SDS011;37162;41.724;13.346;2022-12-18T04:33:27;2.35;;;1.67;;
51122;SDS011;37162;41.724;13.346;2022-12-18T04:35:52;1.70;;;1.48;;
51122;SDS011;37162;41.724;13.346;2022-12-18T04:38:18;1.83;;;1.25;;
51122;SDS011;37162;41.724;13.346;2022-12-18T04:40:43;1.55;;;1.35;;
51122;SDS011;37162;41.724;13.346;2022-12-18T04:43:09;2.95;;;1.60;;
51122;SDS011;37162;41.724;13.346;2022-12-18T04:45:34;1.27;;;1.17;;
51122;SDS011;37162;41.724;13.346;2022-12-18T04:48:00;2.03;;;1.20;;
51122;SDS011;37162;41.724;13.346;2022-12-18T04:50:26;1.23;;;1.10;;
51122;SDS011;37162;41.724;13.346;2022-12-18T04:52:52;1.67;;;1.50;;
51122;SDS011;37162;41.724;13.346;2022-12-18T04:55:18;1.38;;;1.08;;
51122;SDS011;37162;41.724;13.346;2022-12-18T04:57:43;1.65;;;1.38;;
51122;SDS011;37162;41.724;13.346;2022-12-18T05:00:09;1.17;;;1.08;;
51122;SDS011;37162;41.724;13.346;2022-12-18T05:02:35;1.05;;;1.00;;
51122;SDS011;37162;41.724;13.346;2022-12-18T05:05:00;1.27;;;1.17;;
51122;SDS011;37162;41.724;13.346;2022-12-18T05:07:26;1.33;;;1.13;;
51122;SDS011;37162;41.724;13.346;2022-12-18T05:09:51;1.33;;;1.20;;
51122;SDS011;37162;41.724;13.346;2022-12-18T05:12:16;1.85;;;1.20;;
51122;SDS011;37162;41.724;13.346;2022-12-18T05:14:42;1.08;;;1.00;;
51122;SDS011;37162;41.724;13.346;2022-12-18T05:17:07;1.20;;;1.10;;
51122;SDS011;37162;41.724;13.346;2022-12-18T05:19:33;1.50;;;1.30;;
51122;SDS011;37162;41.724;13.346;2022-12-18T05:21:58;1.58;;;1.13;;
51122;SDS011;37162;41.724;13.346;2022-12-18T05:24:24;1.25;;;1.15;;
51122;SDS011;37162;41.724;13.346;2022-12-18T05:26:49;1.50;;;1.20;;
51122;SDS011;37162;41.724;13.346;2022-12-18T05:29:15;1.88;;;1.17;;
51122;SDS011;37162;41.724;13.346;2022-12-18T05:31:40;1.10;;;1.00;;
51122;SDS011;37162;41.724;13.346;2022-12-18T05:34:06;1.00;;;0.85;;
51122;SDS011;37162;41.724;13.346;2022-12-18T05:36:31;1.25;;;0.93;;
51122;SDS011;37162;41.724;13.346;2022-12-18T05:38:57;2.60;;;1.25;;
51122;SDS011;37162;41.724;13.346;2022-12-18T05:41:22;0.90;;;0.90;;
51122;SDS011;37162;41.724;13.346;2022-12-18T05:43:48;1.15;;;1.00;;
51122;SDS011;37162;41.724;13.346;2022-12-18T05:46:14;1.33;;;1.00;;
51122;SDS011;37162;41.724;13.346;2022-12-18T05:48:42;1.90;;;1.10;;
51122;SDS011;37162;41.724;13.346;2022-12-18T05:51:09;1.20;;;1.10;;
51122;SDS011;37162;41.724;13.346;2022-12-18T05:53:37;1.00;;;1.00;;
51122;SDS011;37162;41.724;13.346;2022-12-18T05:56:04;1.65;;;1.20;;
51122;SDS011;37162;41.724;13.346;2022-12-18T05:58:32;0.85;;;0.85;;
51122;SDS011;37162;41.724;13.346;2022-12-18T06:00:58;1.00;;;0.85;;
51122;SDS011;37162;41.724;13.346;2022-12-18T06:03:30;1.75;;;1.10;;
51122;SDS011;37162;41.724;13.346;2022-12-18T06:05:56;1.70;;;1.17;;
51122;SDS011;37162;41.724;13.346;2022-12-18T06:08:21;1.58;;;1.30;;
51122;SDS011;37162;41.724;13.346;2022-12-18T06:10:50;1.05;;;0.93;;
51122;SDS011;37162;41.724;13.346;2022-12-18T06:13:17;1.08;;;0.80;;
51122;SDS011;37162;41.724;13.346;2022-12-18T06:15:43;0.70;;;0.70;;
51122;SDS011;37162;41.724;13.346;2022-12-18T06:18:08;1.17;;;1.00;;
51122;SDS011;37162;41.724;13.346;2022-12-18T06:20:34;1.25;;;1.15;;
51122;SDS011;37162;41.724;13.346;2022-12-18T06:23:01;0.98;;;0.93;;
51122;SDS011;37162;41.724;13.346;2022-12-18T06:25:27;1.00;;;0.90;;
51122;SDS011;37162;41.724;13.346;2022-12-18T06:27:52;1.27;;;0.80;;
51122;SDS011;37162;41.724;13.346;2022-12-18T06:30:18;0.77;;;0.73;;
51122;SDS011;37162;41.724;13.346;2022-12-18T06:32:43;4.43;;;1.25;;
51122;SDS011;37162;41.724;13.346;2022-12-18T06:35:09;1.85;;;1.15;;
51122;SDS011;37162;41.724;13.346;2022-12-18T06:37:35;2.13;;;0.95;;
51122;SDS011;37162;41.724;13.346;2022-12-18T06:40:00;1.02;;;1.02;;
51122;SDS011;37162;41.724;13.346;2022-12-18T06:42:26;0.90;;;0.88;;
51122;SDS011;37162;41.724;13.346;2022-12-18T06:44:51;1.13;;;0.80;;
51122;SDS011;37162;41.724;13.346;2022-12-18T06:47:17;0.85;;;0.77;;
51122;SDS011;37162;41.724;13.346;2022-12-18T06:49:43;0.77;;;0.77;;
51122;SDS011;37162;41.724;13.346;2022-12-18T06:52:08;1.80;;;0.80;;
51122;SDS011;37162;41.724;13.346;2022-12-18T06:54:34;1.08;;;0.98;;
51122;SDS011;37162;41.724;13.346;2022-12-18T06:56:59;1.00;;;0.70;;
51122;SDS011;37162;41.724;13.346;2022-12-18T06:59:25;1.00;;;0.90;;
51122;SDS011;37162;41.724;13.346;2022-12-18T07:01:50;1.00;;;0.90;;
51122;SDS011;37162;41.724;13.346;2022-12-18T07:04:16;0.82;;;0.82;;
51122;SDS011;37162;41.724;13.346;2022-12-18T07:06:42;0.73;;;0.68;;
51122;SDS011;37162;41.724;13.346;2022-12-18T07:09:07;0.98;;;0.55;;
51122;SDS011;37162;41.724;13.346;2022-12-18T07:11:33;0.80;;;0.80;;
51122;SDS011;37162;41.724;13.346;2022-12-18T07:13:58;0.77;;;0.77;;
51122;SDS011;37162;41.724;13.346;2022-12-18T07:16:24;1.02;;;0.80;;
51122;SDS011;37162;41.724;13.346;2022-12-18T07:18:49;0.80;;;0.70;;
51122;SDS011;37162;41.724;13.346;2022-12-18T07:21:16;0.77;;;0.60;;
51122;SDS011;37162;41.724;13.346;2022-12-18T07:23:43;0.88;;;0.85;;
51122;SDS011;37162;41.724;13.346;2022-12-18T07:26:10;1.23;;;0.70;;
51122;SDS011;37162;41.724;13.346;2022-12-18T07:28:37;1.45;;;0.80;;
51122;SDS011;37162;41.724;13.346;2022-12-18T07:31:07;1.00;;;0.90;;
51122;SDS011;37162;41.724;13.346;2022-12-18T07:33:34;1.10;;;1.00;;
51122;SDS011;37162;41.724;13.346;2022-12-18T07:36:00;1.10;;;0.80;;
51122;SDS011;37162;41.724;13.346;2022-12-18T07:38:28;1.13;;;0.88;;
51122;SDS011;37162;41.724;13.346;2022-12-18T07:40:53;2.13;;;0.70;;
51122;SDS011;37162;41.724;13.346;2022-12-18T07:43:19;0.60;;;0.60;;
51122;SDS011;37162;41.724;13.346;2022-12-18T07:45:44;0.70;;;0.70;;
51122;SDS011;37162;41.724;13.346;2022-12-18T07:48:09;1.17;;;0.77;;
51122;SDS011;37162;41.724;13.346;2022-12-18T07:50:35;1.55;;;0.80;;
51122;SDS011;37162;41.724;13.346;2022-12-18T07:53:00;1.00;;;0.90;;
51122;SDS011;37162;41.724;13.346;2022-12-18T07:55:30;0.80;;;0.80;;
51122;SDS011;37162;41.724;13.346;2022-12-18T07:57:56;0.77;;;0.68;;
51122;SDS011;37162;41.724;13.346;2022-12-18T08:00:21;1.08;;;0.77;;
51122;SDS011;37162;41.724;13.346;2022-12-18T08:02:47;0.75;;;0.70;;
51122;SDS011;37162;41.724;13.346;2022-12-18T08:05:12;0.70;;;0.70;;
51122;SDS011;37162;41.724;13.346;2022-12-18T08:07:38;0.88;;;0.73;;
51122;SDS011;37162;41.724;13.346;2022-12-18T08:10:04;0.60;;;0.60;;
51122;SDS011;37162;41.724;13.346;2022-12-18T08:12:31;0.70;;;0.70;;
51122;SDS011;37162;41.724;13.346;2022-12-18T08:14:56;1.95;;;0.98;;
51122;SDS011;37162;41.724;13.346;2022-12-18T08:17:22;2.42;;;0.82;;
51122;SDS011;37162;41.724;13.346;2022-12-18T08:19:47;1.02;;;0.90;;
51122;SDS011;37162;41.724;13.346;2022-12-18T08:22:13;1.00;;;0.82;;
51122;SDS011;37162;41.724;13.346;2022-12-18T08:24:38;1.33;;;0.90;;
51122;SDS011;37162;41.724;13.346;2022-12-18T08:27:04;1.85;;;0.98;;
51122;SDS011;37162;41.724;13.346;2022-12-18T08:29:29;1.00;;;0.90;;
51122;SDS011;37162;41.724;13.346;2022-12-18T08:31:55;0.80;;;0.80;;
51122;SDS011;37162;41.724;13.346;2022-12-18T08:34:21;2.13;;;1.05;;
51122;SDS011;37162;41.724;13.346;2022-12-18T08:36:46;1.70;;;0.95;;
51122;SDS011;37162;41.724;13.346;2022-12-18T08:39:11;1.20;;;1.10;;
51122;SDS011;37162;41.724;13.346;2022-12-18T08:41:37;5.40;;;1.38;;
51122;SDS011;37162;41.724;13.346;2022-12-18T08:44:02;1.48;;;1.20;;
51122;SDS011;37162;41.724;13.346;2022-12-18T08:46:54;1.65;;;1.15;;
51122;SDS011;37162;41.724;13.346;2022-12-18T08:49:19;2.15;;;1.40;;
51122;SDS011;37162;41.724;13.346;2022-12-18T08:51:45;1.80;;;1.58;;
51122;SDS011;37162;41.724;13.346;2022-12-18T08:54:11;1.35;;;1.25;;
51122;SDS011;37162;41.724;13.346;2022-12-18T08:56:38;2.40;;;1.77;;
51122;SDS011;37162;41.724;13.346;2022-12-18T08:59:04;2.28;;;1.55;;
51122;SDS011;37162;41.724;13.346;2022-12-18T09:01:30;1.58;;;1.48;;
51122;SDS011;37162;41.724;13.346;2022-12-18T09:03:55;2.08;;;1.50;;
51122;SDS011;37162;41.724;13.346;2022-12-18T09:06:21;1.90;;;1.30;;
51122;SDS011;37162;41.724;13.346;2022-12-18T09:08:48;3.42;;;1.50;;
51122;SDS011;37162;41.724;13.346;2022-12-18T09:11:15;2.08;;;1.50;;
51122;SDS011;37162;41.724;13.346;2022-12-18T09:13:45;1.38;;;1.20;;
51122;SDS011;37162;41.724;13.346;2022-12-18T09:16:11;2.78;;;1.50;;
51122;SDS011;37162;41.724;13.346;2022-12-18T09:18:36;2.65;;;1.58;;
51122;SDS011;37162;41.724;13.346;2022-12-18T09:21:12;3.40;;;1.90;;
51122;SDS011;37162;41.724;13.346;2022-12-18T09:23:39;1.92;;;1.70;;
51122;SDS011;37162;41.724;13.346;2022-12-18T09:26:05;1.90;;;1.55;;
51122;SDS011;37162;41.724;13.346;2022-12-18T09:28:30;2.05;;;1.70;;
51122;SDS011;37162;41.724;13.346;2022-12-18T09:30:56;2.45;;;1.95;;
51122;SDS011;37162;41.724;13.346;2022-12-18T09:33:21;1.90;;;1.70;;
51122;SDS011;37162;41.724;13.346;2022-12-18T09:35:47;2.42;;;1.80;;
51122;SDS011;37162;41.724;13.346;2022-12-18T09:38:13;2.45;;;1.70;;
51122;SDS011;37162;41.724;13.346;2022-12-18T09:40:51;1.60;;;1.40;;
51122;SDS011;37162;41.724;13.346;2022-12-18T09:43:20;3.30;;;1.98;;
51122;SDS011;37162;41.724;13.346;2022-12-18T09:45:53;2.17;;;1.60;;
51122;SDS011;37162;41.724;13.346;2022-12-18T09:48:27;2.03;;;1.73;;
51122;SDS011;37162;41.724;13.346;2022-12-18T09:51:00;2.08;;;1.60;;
51122;SDS011;37162;41.724;13.346;2022-12-18T09:53:32;2.63;;;1.70;;
51122;SDS011;37162;41.724;13.346;2022-12-18T09:56:03;1.48;;;1.38;;
51122;SDS011;37162;41.724;13.346;2022-12-18T09:58:40;1.75;;;1.52;;
51122;SDS011;37162;41.724;13.346;2022-12-18T10:01:15;2.20;;;1.63;;
51122;SDS011;37162;41.724;13.346;2022-12-18T10:03:43;2.05;;;1.60;;
51122;SDS011;37162;41.724;13.346;2022-12-18T10:06:29;1.67;;;1.42;;
51122;SDS011;37162;41.724;13.346;2022-12-18T10:14:36;1.67;;;1.40;;
51122;SDS011;37162;41.724;13.346;2022-12-18T10:19:54;1.65;;;1.55;;
51122;SDS011;37162;41.724;13.346;2022-12-18T10:24:54;2.08;;;1.60;;
51122;SDS011;37162;41.724;13.346;2022-12-18T10:27:27;1.60;;;1.35;;
51122;SDS011;37162;41.724;13.346;2022-12-18T10:29:54;1.80;;;1.40;;
51122;SDS011;37162;41.724;13.346;2022-12-18T10:32:24;2.05;;;1.85;;
51122;SDS011;37162;41.724;13.346;2022-12-18T10:34:52;2.15;;;1.65;;
51122;SDS011;37162;41.724;13.346;2022-12-18T10:37:21;2.10;;;1.85;;
51122;SDS011;37162;41.724;13.346;2022-12-18T10:42:34;2.47;;;1.95;;
51122;SDS011;37162;41.724;13.346;2022-12-18T10:45:08;2.85;;;1.90;;
51122;SDS011;37162;41.724;13.346;2022-12-18T10:47:59;2.20;;;1.83;;
51122;SDS011;37162;41.724;13.346;2022-12-18T10:50:35;2.10;;;1.67;;
51122;SDS011;37162;41.724;13.346;2022-12-18T10:53:03;2.00;;;1.75;;
51122;SDS011;37162;41.724;13.346;2022-12-18T10:55:31;2.33;;;1.98;;
51122;SDS011;37162;41.724;13.346;2022-12-18T11:01:07;3.38;;;2.15;;
51122;SDS011;37162;41.724;13.346;2022-12-18T11:03:37;1.90;;;1.70;;
51122;SDS011;37162;41.724;13.346;2022-12-18T11:08:35;2.78;;;1.80;;
51122;SDS011;37162;41.724;13.346;2022-12-18T11:11:02;2.25;;;2.00;;
51122;SDS011;37162;41.724;13.346;2022-12-18T11:13:31;4.10;;;2.30;;
51122;SDS011;37162;41.724;13.346;2022-12-18T11:15:57;2.40;;;1.60;;
51122;SDS011;37162;41.724;13.346;2022-12-18T11:18:28;2.38;;;2.00;;
51122;SDS011;37162;41.724;13.346;2022-12-18T11:21:06;2.15;;;1.90;;
51122;SDS011;37162;41.724;13.346;2022-12-18T11:23:33;2.95;;;2.03;;
51122;SDS011;37162;41.724;13.346;2022-12-18T11:26:01;2.47;;;2.00;;
51122;SDS011;37162;41.724;13.346;2022-12-18T11:28:39;2.60;;;1.92;;
51122;SDS011;37162;41.724;13.346;2022-12-18T11:31:18;1.70;;;1.52;;
51122;SDS011;37162;41.724;13.346;2022-12-18T11:33:58;2.65;;;1.80;;
51122;SDS011;37162;41.724;13.346;2022-12-18T11:36:28;3.25;;;1.85;;
51122;SDS011;37162;41.724;13.346;2022-12-18T11:38:59;2.30;;;1.83;;
51122;SDS011;37162;41.724;13.346;2022-12-18T11:41:35;1.83;;;1.60;;
51122;SDS011;37162;41.724;13.346;2022-12-18T11:44:26;1.77;;;1.67;;
51122;SDS011;37162;41.724;13.346;2022-12-18T11:47:00;2.45;;;1.65;;
51122;SDS011;37162;41.724;13.346;2022-12-18T11:49:34;2.45;;;1.95;;
51122;SDS011;37162;41.724;13.346;2022-12-18T11:52:21;2.35;;;1.77;;
51122;SDS011;37162;41.724;13.346;2022-12-18T11:54:51;2.83;;;1.52;;
51122;SDS011;37162;41.724;13.346;2022-12-18T12:00:42;2.53;;;1.80;;
51122;SDS011;37162;41.724;13.346;2022-12-18T12:03:50;1.90;;;1.53;;
51122;SDS011;37162;41.724;13.346;2022-12-18T12:25:29;1.92;;;1.55;;
51122;SDS011;37162;41.724;13.346;2022-12-18T12:39:23;1.80;;;1.60;;
51122;SDS011;37162;41.724;13.346;2022-12-18T12:41:55;3.05;;;1.70;;
51122;SDS011;37162;41.724;13.346;2022-12-18T12:44:44;2.13;;;1.60;;
51122;SDS011;37162;41.724;13.346;2022-12-18T12:47:23;1.85;;;1.58;;
51122;SDS011;37162;41.724;13.346;2022-12-18T12:49:52;1.90;;;1.80;;
51122;SDS011;37162;41.724;13.346;2022-12-18T12:55:02;1.70;;;1.60;;
51122;SDS011;37162;41.724;13.346;2022-12-18T12:57:34;2.92;;;2.15;;
51122;SDS011;37162;41.724;13.346;2022-12-18T13:00:05;2.92;;;2.15;;
51122;SDS011;37162;41.724;13.346;2022-12-18T13:05:47;4.15;;;2.20;;
51122;SDS011;37162;41.724;13.346;2022-12-18T13:08:24;2.33;;;2.10;;
51122;SDS011;37162;41.724;13.346;2022-12-18T13:10:53;2.25;;;2.05;;
51122;SDS011;37162;41.724;13.346;2022-12-18T13:13:48;2.50;;;2.17;;
51122;SDS011;37162;41.724;13.346;2022-12-18T13:16:21;2.42;;;2.22;;
51122;SDS011;37162;41.724;13.346;2022-12-18T13:18:57;3.50;;;2.15;;
51122;SDS011;37162;41.724;13.346;2022-12-18T13:21:27;3.60;;;2.17;;
51122;SDS011;37162;41.724;13.346;2022-12-18T13:23:55;2.33;;;2.13;;
51122;SDS011;37162;41.724;13.346;2022-12-18T13:34:17;2.45;;;2.05;;
51122;SDS011;37162;41.724;13.346;2022-12-18T13:36:44;3.35;;;2.40;;
51122;SDS011;37162;41.724;13.346;2022-12-18T13:41:54;3.55;;;2.42;;
51122;SDS011;37162;41.724;13.346;2022-12-18T13:44:55;2.60;;;2.40;;
51122;SDS011;37162;41.724;13.346;2022-12-18T13:47:30;2.97;;;2.20;;
51122;SDS011;37162;41.724;13.346;2022-12-18T13:49:58;2.72;;;2.20;;
51122;SDS011;37162;41.724;13.346;2022-12-18T13:52:25;3.47;;;2.38;;
51122;SDS011;37162;41.724;13.346;2022-12-18T13:54:53;2.47;;;2.20;;
51122;SDS011;37162;41.724;13.346;2022-12-18T13:57:28;3.42;;;2.42;;
51122;SDS011;37162;41.724;13.346;2022-12-18T13:59:56;2.72;;;2.30;;
51122;SDS011;37162;41.724;13.346;2022-12-18T14:02:26;2.45;;;2.08;;
51122;SDS011;37162;41.724;13.346;2022-12-18T14:04:53;2.70;;;2.03;;
51122;SDS011;37162;41.724;13.346;2022-12-18T14:07:23;2.42;;;2.08;;
51122;SDS011;37162;41.724;13.346;2022-12-18T14:09:52;2.83;;;2.35;;
51122;SDS011;37162;41.724;13.346;2022-12-18T14:12:24;3.35;;;2.55;;
51122;SDS011;37162;41.724;13.346;2022-12-18T14:15:32;2.95;;;2.63;;
51122;SDS011;37162;41.724;13.346;2022-12-18T14:18:02;2.95;;;2.20;;
51122;SDS011;37162;41.724;13.346;2022-12-18T14:20:29;2.40;;;2.20;;
51122;SDS011;37162;41.724;13.346;2022-12-18T14:22:57;2.63;;;2.15;;
51122;SDS011;37162;41.724;13.346;2022-12-18T14:25:24;3.20;;;2.35;;
51122;SDS011;37162;41.724;13.346;2022-12-18T14:27:52;3.92;;;2.88;;
51122;SDS011;37162;41.724;13.346;2022-12-18T14:30:28;3.25;;;2.20;;
51122;SDS011;37162;41.724;13.346;2022-12-18T14:33:10;4.60;;;2.53;;
51122;SDS011;37162;41.724;13.346;2022-12-18T14:35:38;4.20;;;2.53;;
51122;SDS011;37162;41.724;13.346;2022-12-18T14:38:19;3.53;;;2.85;;
51122;SDS011;37162;41.724;13.346;2022-12-18T14:40:53;3.83;;;2.55;;
51122;SDS011;37162;41.724;13.346;2022-12-18T14:43:20;3.50;;;3.00;;
51122;SDS011;37162;41.724;13.346;2022-12-18T14:45:46;3.25;;;2.70;;
51122;SDS011;37162;41.724;13.346;2022-12-18T14:50:57;3.45;;;2.97;;
51122;SDS011;37162;41.724;13.346;2022-12-18T14:53:28;5.00;;;3.40;;
51122;SDS011;37162;41.724;13.346;2022-12-18T14:55:59;5.15;;;3.50;;
51122;SDS011;37162;41.724;13.346;2022-12-18T14:58:25;4.75;;;3.22;;
51122;SDS011;37162;41.724;13.346;2022-12-18T15:00:50;3.72;;;3.40;;
51122;SDS011;37162;41.724;13.346;2022-12-18T15:03:19;4.32;;;3.70;;
51122;SDS011;37162;41.724;13.346;2022-12-18T15:05:46;5.93;;;4.07;;
51122;SDS011;37162;41.724;13.346;2022-12-18T15:08:28;7.32;;;5.55;;
51122;SDS011;37162;41.724;13.346;2022-12-18T15:10:55;6.95;;;5.20;;
51122;SDS011;37162;41.724;13.346;2022-12-18T15:13:22;6.20;;;4.47;;
51122;SDS011;37162;41.724;13.346;2022-12-18T15:15:49;6.03;;;4.40;;
51122;SDS011;37162;41.724;13.346;2022-12-18T15:18:18;6.22;;;4.82;;
51122;SDS011;37162;41.724;13.346;2022-12-18T15:26:09;6.13;;;4.87;;
51122;SDS011;37162;41.724;13.346;2022-12-18T15:33:42;7.63;;;6.00;;
51122;SDS011;37162;41.724;13.346;2022-12-18T15:36:12;11.05;;;7.00;;
51122;SDS011;37162;41.724;13.346;2022-12-18T15:38:39;9.10;;;7.47;;
51122;SDS011;37162;41.724;13.346;2022-12-18T15:41:05;10.10;;;7.80;;
51122;SDS011;37162;41.724;13.346;2022-12-18T15:43:31;9.63;;;7.35;;
51122;SDS011;37162;41.724;13.346;2022-12-18T15:46:03;8.20;;;7.00;;
51122;SDS011;37162;41.724;13.346;2022-12-18T15:48:31;9.98;;;6.88;;
51122;SDS011;37162;41.724;13.346;2022-12-18T15:51:04;9.32;;;7.05;;
51122;SDS011;37162;41.724;13.346;2022-12-18T15:53:35;10.30;;;7.65;;
51122;SDS011;37162;41.724;13.346;2022-12-18T15:56:01;8.48;;;7.25;;
51122;SDS011;37162;41.724;13.346;2022-12-18T15:58:45;10.50;;;7.97;;
51122;SDS011;37162;41.724;13.346;2022-12-18T16:01:11;11.02;;;8.90;;
51122;SDS011;37162;41.724;13.346;2022-12-18T16:03:36;11.25;;;8.68;;
51122;SDS011;37162;41.724;13.346;2022-12-18T16:06:02;9.25;;;8.00;;
51122;SDS011;37162;41.724;13.346;2022-12-18T16:08:28;10.50;;;8.15;;
51122;SDS011;37162;41.724;13.346;2022-12-18T16:10:55;9.02;;;7.72;;
51122;SDS011;37162;41.724;13.346;2022-12-18T16:13:21;12.05;;;8.70;;
51122;SDS011;37162;41.724;13.346;2022-12-18T16:15:47;10.48;;;8.45;;
51122;SDS011;37162;41.724;13.346;2022-12-18T16:18:13;9.52;;;8.20;;
51122;SDS011;37162;41.724;13.346;2022-12-18T16:20:39;10.50;;;8.00;;
51122;SDS011;37162;41.724;13.346;2022-12-18T16:23:05;10.30;;;8.15;;
51122;SDS011;37162;41.724;13.346;2022-12-18T16:25:31;11.73;;;8.40;;
51122;SDS011;37162;41.724;13.346;2022-12-18T16:27:57;12.00;;;9.23;;
51122;SDS011;37162;41.724;13.346;2022-12-18T16:30:23;12.00;;;9.80;;
51122;SDS011;37162;41.724;13.346;2022-12-18T16:32:52;12.48;;;9.93;;
51122;SDS011;37162;41.724;13.346;2022-12-18T16:35:18;12.88;;;9.20;;
51122;SDS011;37162;41.724;13.346;2022-12-18T16:37:44;11.80;;;9.27;;